Northway Airport Northway US
ICAO: PAOR
IATA:
Category: Medium
Scheduled Services:

Elevation: 1715 ft
TransAlt. 18000 ft.

Airport Communications:
ASOS:135.4
ANCHORAGE CNTR:126.55
CTAF:123.6
RDO:122.2
SUAS INFO SVC:125.3

PAOR Zoom In..

Runways:

(A) RW 05 length 5100 ft width 100 ft
---- / hdg 52

(B) RW 23 length 5100 ft width 100 ft
---- / hdg 232

Location; PAOR
Day. 14 / Time. 13.53 Zulu
* Altimeter: 29.59
* Temperature: 08° c. 46.4°f.
* Wind from: 000° Speed 00 kn.
Dewpoint: 08° c.
Visibility: 10 Statute Miles.
Clouds: Broken 9500 ft.
Clouds: Broken 16000 ft.

PAOR 141353Z 00000KT 10SM BKN095 BKN160 08/08 A2959 RMK AO2 SLP021 T00830078


Wind - Calm.

 
 
jpsmedia.com for Web Design worldairports.se 2018   terms of use